Airfield :
LOGIN :

Register | Disclaimer

   EN    FR    IT 

 










Legend :    VFR   Marginal VFR   IFR   Intensive IFR   Very Intensive IFR
Visi :
Ceiling :
>= 8 km
>= 3000ft
5 to 8 km
1000 to 3000 ft
1500m to 5 km
500 to 1000 ft
800 to 1500m
200 to 500 ft
< 800m
< 200 ft
Symbols :   Thunderstorms  Fog  Heavy snow  Heavy precipitations  Wind > 20 kt
SIGMETs :     Misc.  Thunderstorms  Icing  Turbulence  Mountain Waves  Volcanic Ashes






- Airport Elevation : 1046 ft
- IATA code : NUE


EDDN - Nuremberg

CURRENT METAR :
  • 061050Z AUTO VRB02KT 9999 OVC005 03/02 Q1012 BECMG 24005KT

EXPIRED METARs :
  • 061020Z AUTO VRB01KT 9999 BKN007 OVC010 03/02 Q1012 BECMG 24005KT
  • 060950Z AUTO 17004KT 9999 -RADZ BKN006 BKN010 02/02 Q1012 NOSIG
  • 060920Z AUTO 17004KT 150V210 9999 -RA BKN007 BKN012 OVC016 02/01 Q1012 NOSIG
  • 060850Z AUTO 19003KT 160V220 9999 -RADZ SCT007 BKN015 02/01 Q1012 TEMPO BKN013
  • 060820Z AUTO 19005KT 9999 -RADZ FEW007 BKN017 OVC022 02/01 Q1011 TEMPO BKN007
  • 060750Z AUTO 19005KT 9999 BKN014 OVC018 02/01 Q1011 NOSIG
  • 060720Z AUTO 19005KT 9999 FEW006 BKN012 02/01 Q1011 NOSIG
  • 060650Z AUTO 17005KT 9999 -DZ SCT006 BKN011 02/01 Q1011 TEMPO 4000 BKN006
  • 060620Z AUTO 15004KT 6000 -RA OVC009 01/01 Q1011 TEMPO 4000

TAF TAF EDDN
Valid from the 06 at 06:00 until the 07 at 06:00 UTC


060500Z 0606/0706 19004KT 9999 BKN013
TEMPO 0606/0612 4000 -SNRA BKN007
BECMG 0609/0611 25005KT
TEMPO 0612/0619 3000 -SN BKN007
PROB30
TEMPO 0613/0620 BKN015
BECMG 0620/0622 BKN005



MET'MAP, your aeronautical weather chart ! - Copyright ORBIFLY December 2007 - Disclaimer

ORBIFLY MET'MAP TEAM :

Programming & Development : Alexandra Zaïnal
Original concept : Baudouin d'Aumeries
Technical & hardware support : Manuel Goepfert
Assistance : Marc-Olivier Méhu




SOURCES & CREDITS :

   NOAA